createdAt,value
2018-09-26T00:02:29.126Z,5.20
2018-09-26T00:04:57.658Z,5.20
2018-09-26T00:07:26.520Z,5.10
2018-09-26T00:09:55.087Z,5.10
2018-09-26T00:12:23.555Z,5.10
2018-09-26T00:14:52.001Z,5.10
2018-09-26T00:17:20.600Z,5.10
2018-09-26T00:19:49.059Z,5.10
2018-09-26T00:22:17.526Z,5.10
2018-09-26T00:24:46.640Z,5.10
2018-09-26T00:27:15.089Z,5.10
2018-09-26T00:29:43.493Z,5.00
2018-09-26T00:32:12.019Z,5.10
2018-09-26T00:34:40.883Z,5.10
2018-09-26T00:37:09.355Z,5.10
2018-09-26T00:39:37.865Z,5.10
2018-09-26T00:42:06.577Z,5.10
2018-09-26T00:44:35.065Z,5.10
2018-09-26T00:47:03.495Z,5.20
2018-09-26T00:49:31.974Z,5.20
2018-09-26T00:52:00.697Z,5.20
2018-09-26T00:54:29.192Z,5.20
2018-09-26T00:56:57.651Z,5.20
2018-09-26T00:59:26.149Z,5.20
2018-09-26T01:01:54.585Z,5.10
2018-09-26T01:04:23.047Z,5.10
2018-09-26T01:06:51.461Z,5.10
2018-09-26T01:09:19.923Z,5.10
2018-09-26T01:11:48.388Z,5.10
2018-09-26T01:14:16.882Z,5.10
2018-09-26T01:16:45.453Z,5.00
2018-09-26T01:19:13.934Z,5.00
2018-09-26T01:21:42.378Z,4.90
2018-09-26T01:24:10.818Z,4.90
2018-09-26T01:26:39.272Z,4.90
2018-09-26T01:29:07.734Z,4.80
2018-09-26T01:31:36.178Z,4.80
2018-09-26T01:34:04.648Z,4.80
2018-09-26T01:36:33.215Z,4.80
2018-09-26T01:39:02.351Z,4.80
2018-09-26T01:41:31.042Z,4.80
2018-09-26T01:43:59.438Z,4.70
2018-09-26T01:46:27.886Z,4.70
2018-09-26T01:48:56.335Z,4.70
2018-09-26T01:51:24.804Z,4.80
2018-09-26T01:53:53.315Z,4.70
2018-09-26T01:56:21.757Z,4.80
2018-09-26T01:58:50.227Z,4.80
2018-09-26T02:01:18.698Z,4.70
2018-09-26T02:03:47.157Z,4.80
2018-09-26T02:06:15.677Z,4.70
2018-09-26T02:08:44.127Z,4.70
2018-09-26T02:11:12.935Z,4.70
2018-09-26T02:13:41.403Z,4.70
2018-09-26T02:16:09.869Z,4.70
2018-09-26T02:18:38.330Z,4.80
2018-09-26T02:21:06.787Z,4.80
2018-09-26T02:23:35.278Z,4.70
2018-09-26T02:26:03.964Z,4.70
2018-09-26T02:28:32.421Z,4.80
2018-09-26T02:31:00.867Z,4.70
2018-09-26T02:33:29.383Z,4.70
2018-09-26T02:35:57.909Z,4.70
2018-09-26T02:38:26.496Z,4.70
2018-09-26T02:40:56.422Z,4.70
2018-09-26T02:43:25.500Z,4.70
2018-09-26T02:45:53.982Z,4.70
2018-09-26T02:48:27.889Z,4.70
2018-09-26T02:50:56.332Z,4.70
2018-09-26T02:53:24.778Z,4.70
2018-09-26T02:55:53.279Z,4.70
2018-09-26T02:58:21.782Z,4.70
2018-09-26T03:00:50.248Z,4.60
2018-09-26T03:03:18.737Z,4.60
2018-09-26T03:05:47.210Z,4.60
2018-09-26T03:08:15.701Z,4.50
2018-09-26T03:10:44.151Z,4.50
2018-09-26T03:13:12.632Z,4.50
2018-09-26T03:15:41.094Z,4.50
2018-09-26T03:18:09.575Z,4.40
2018-09-26T03:20:38.033Z,4.40
2018-09-26T03:23:06.581Z,4.40
2018-09-26T03:25:35.197Z,4.40
2018-09-26T03:28:03.663Z,4.40
2018-09-26T03:30:33.056Z,4.40
2018-09-26T03:33:01.499Z,4.40
2018-09-26T03:35:29.978Z,4.30
2018-09-26T03:37:58.430Z,4.30
2018-09-26T03:40:26.948Z,4.40
2018-09-26T03:42:55.356Z,4.30
2018-09-26T03:45:23.834Z,4.40
2018-09-26T03:47:52.284Z,4.40
2018-09-26T03:50:20.794Z,4.40
2018-09-26T03:52:49.267Z,4.40
2018-09-26T03:55:17.748Z,4.30
2018-09-26T03:57:46.303Z,4.30
2018-09-26T04:00:14.781Z,4.30
2018-09-26T04:02:43.272Z,4.30
2018-09-26T04:05:11.814Z,4.30
2018-09-26T04:07:40.279Z,4.30
2018-09-26T04:10:08.923Z,4.20
2018-09-26T04:12:37.427Z,4.20
2018-09-26T04:15:05.965Z,4.30
2018-09-26T04:17:34.555Z,4.30
2018-09-26T04:20:03.209Z,4.30
2018-09-26T04:22:31.660Z,4.30
2018-09-26T04:25:00.075Z,4.30
2018-09-26T04:27:28.675Z,4.30
2018-09-26T04:29:57.035Z,4.30
2018-09-26T04:32:25.500Z,4.30
2018-09-26T04:34:54.227Z,4.20
2018-09-26T04:37:22.715Z,4.20
2018-09-26T04:39:51.159Z,4.20
2018-09-26T04:42:19.626Z,4.20
2018-09-26T04:44:48.107Z,4.20
2018-09-26T04:47:16.608Z,4.20
2018-09-26T04:49:45.323Z,4.20
2018-09-26T04:52:14.178Z,4.20
2018-09-26T04:54:42.624Z,4.10
2018-09-26T04:57:11.111Z,4.10
2018-09-26T04:59:39.598Z,4.10
2018-09-26T05:02:08.182Z,4.10
2018-09-26T05:04:36.674Z,4.20
2018-09-26T05:07:05.434Z,4.20
2018-09-26T05:09:33.927Z,4.20
2018-09-26T05:12:02.392Z,4.20
2018-09-26T05:14:30.852Z,4.30
2018-09-26T05:16:59.377Z,4.30
2018-09-26T05:19:27.859Z,4.30
2018-09-26T05:21:56.322Z,4.30
2018-09-26T05:24:24.972Z,4.30
2018-09-26T05:26:53.425Z,4.40
2018-09-26T05:29:21.919Z,4.40
2018-09-26T05:31:50.388Z,4.50
2018-09-26T05:34:18.858Z,4.60
2018-09-26T05:36:47.795Z,4.70
2018-09-26T05:39:16.337Z,4.70
2018-09-26T05:41:44.901Z,4.90
2018-09-26T05:44:13.449Z,5.00
2018-09-26T05:46:41.925Z,5.10
2018-09-26T05:49:10.395Z,5.20
2018-09-26T05:51:38.859Z,5.30
2018-09-26T05:54:07.386Z,5.50
2018-09-26T05:56:35.921Z,5.60
2018-09-26T05:59:04.610Z,5.80
2018-09-26T06:01:33.099Z,5.90
2018-09-26T06:04:01.577Z,6.00
2018-09-26T06:06:30.069Z,6.20
2018-09-26T06:08:58.553Z,6.50
2018-09-26T06:11:27.026Z,6.80
2018-09-26T06:13:55.580Z,7.00
2018-09-26T06:16:24.100Z,7.20
2018-09-26T06:18:52.624Z,7.30
2018-09-26T06:21:21.089Z,7.40
2018-09-26T06:23:50.266Z,7.50
2018-09-26T06:26:18.946Z,7.60
2018-09-26T06:28:47.724Z,7.70
2018-09-26T06:31:16.199Z,7.90
2018-09-26T06:33:44.691Z,8.10
2018-09-26T06:36:13.458Z,8.20
2018-09-26T06:38:42.156Z,8.40
2018-09-26T06:41:10.726Z,8.50
2018-09-26T06:43:39.821Z,8.70
2018-09-26T06:46:08.541Z,8.80
2018-09-26T06:48:36.997Z,8.90
2018-09-26T06:51:05.739Z,9.00
2018-09-26T06:53:34.191Z,9.10
2018-09-26T06:56:02.945Z,9.20
2018-09-26T06:58:31.415Z,9.30
2018-09-26T07:00:59.959Z,9.40
2018-09-26T07:03:28.472Z,9.60
2018-09-26T07:05:56.935Z,9.70
2018-09-26T07:08:25.400Z,9.80
2018-09-26T07:10:53.865Z,9.90
2018-09-26T07:13:22.733Z,10.00
2018-09-26T07:15:51.265Z,10.10
2018-09-26T07:18:19.769Z,10.20
2018-09-26T07:20:48.272Z,10.30
2018-09-26T07:23:16.747Z,10.20
2018-09-26T07:25:45.314Z,10.10
2018-09-26T07:28:13.771Z,10.00
2018-09-26T07:30:42.244Z,9.90
2018-09-26T07:33:10.732Z,9.70
2018-09-26T07:35:40.174Z,9.70
2018-09-26T07:38:08.688Z,9.70
2018-09-26T07:40:37.193Z,9.70
2018-09-26T07:43:05.706Z,9.80
2018-09-26T07:45:34.565Z,9.90
2018-09-26T07:48:03.308Z,10.00
2018-09-26T07:50:31.814Z,10.10
2018-09-26T07:53:00.389Z,10.00
2018-09-26T07:55:29.172Z,10.00
2018-09-26T07:57:57.648Z,10.00
2018-09-26T08:00:26.472Z,9.90
2018-09-26T08:02:54.929Z,9.90
2018-09-26T08:05:23.445Z,10.00
2018-09-26T08:07:51.987Z,10.20
2018-09-26T08:10:20.494Z,10.40
2018-09-26T08:12:49.032Z,10.50
2018-09-26T08:15:17.514Z,10.70
2018-09-26T08:17:46.107Z,11.00
2018-09-26T08:20:14.867Z,11.40
2018-09-26T08:22:43.400Z,11.70
2018-09-26T08:25:11.900Z,11.90
2018-09-26T08:27:40.409Z,12.20
2018-09-26T08:30:08.963Z,12.50
2018-09-26T08:32:37.465Z,12.70
2018-09-26T08:35:06.001Z,12.90
2018-09-26T08:37:34.502Z,13.10
2018-09-26T08:40:03.070Z,13.20
2018-09-26T08:42:31.512Z,13.40
2018-09-26T08:45:00.019Z,13.70
2018-09-26T08:47:28.822Z,14.00
2018-09-26T08:49:57.364Z,14.20
2018-09-26T08:52:25.877Z,14.30
2018-09-26T08:54:54.393Z,14.40
2018-09-26T08:57:22.904Z,14.50
2018-09-26T08:59:51.797Z,14.60
2018-09-26T09:02:20.252Z,14.70
2018-09-26T09:04:48.811Z,14.80
2018-09-26T09:07:17.325Z,14.90
2018-09-26T09:09:45.788Z,14.90
2018-09-26T09:12:14.932Z,15.00
2018-09-26T09:14:44.548Z,15.30
2018-09-26T09:17:12.922Z,15.30
2018-09-26T09:19:41.405Z,15.50
2018-09-26T09:22:09.867Z,15.80
2018-09-26T09:24:38.368Z,16.10
2018-09-26T09:27:06.903Z,16.30
2018-09-26T09:29:35.327Z,16.50
2018-09-26T09:32:04.373Z,16.30
2018-09-26T09:34:32.823Z,16.20
2018-09-26T09:37:01.292Z,16.30
2018-09-26T09:39:29.898Z,16.50
2018-09-26T09:41:58.381Z,16.60
2018-09-26T09:44:26.978Z,16.70
2018-09-26T09:46:55.387Z,16.70
2018-09-26T09:49:23.970Z,16.70
2018-09-26T09:51:52.451Z,16.80
2018-09-26T09:54:20.939Z,16.60
2018-09-26T09:56:49.445Z,16.40
2018-09-26T09:59:17.920Z,16.60
2018-09-26T10:01:46.374Z,16.80
2018-09-26T10:04:15.740Z,17.10
2018-09-26T10:06:44.361Z,17.30
2018-09-26T10:09:12.858Z,17.70
2018-09-26T10:11:41.342Z,17.90
2018-09-26T10:14:10.114Z,17.80
2018-09-26T10:16:38.645Z,17.60
2018-09-26T10:19:07.113Z,17.60
2018-09-26T10:21:35.582Z,17.70
2018-09-26T10:24:04.058Z,17.90
2018-09-26T10:26:32.635Z,18.10
2018-09-26T10:29:01.100Z,18.10
2018-09-26T10:31:29.565Z,18.00
2018-09-26T10:33:58.305Z,18.00
2018-09-26T10:36:26.803Z,18.10
2018-09-26T10:38:55.297Z,18.10
2018-09-26T10:41:23.719Z,18.20
2018-09-26T10:43:52.159Z,18.40
2018-09-26T10:46:20.619Z,18.50
2018-09-26T10:48:49.144Z,18.60
2018-09-26T10:51:17.725Z,18.80
2018-09-26T10:53:46.192Z,18.90
2018-09-26T10:56:14.664Z,18.70
2018-09-26T10:58:43.414Z,18.60
2018-09-26T11:01:11.848Z,18.80
2018-09-26T11:03:40.345Z,18.80
2018-09-26T11:06:08.821Z,18.90
2018-09-26T11:08:37.307Z,18.80
2018-09-26T11:11:06.210Z,18.90
2018-09-26T11:13:34.795Z,18.90
2018-09-26T11:16:03.325Z,19.00
2018-09-26T11:18:31.913Z,19.10
2018-09-26T11:21:00.359Z,19.30
2018-09-26T11:23:28.860Z,19.50
2018-09-26T11:25:57.317Z,19.50
2018-09-26T11:28:25.919Z,19.50
2018-09-26T11:30:54.309Z,19.60
2018-09-26T11:33:22.888Z,19.60
2018-09-26T11:35:51.372Z,19.70
2018-09-26T11:38:19.922Z,19.70
2018-09-26T11:40:48.447Z,19.70
2018-09-26T11:43:16.883Z,19.70
2018-09-26T11:45:45.374Z,19.60
2018-09-26T11:48:13.899Z,19.60
2018-09-26T11:50:42.382Z,19.60
2018-09-26T11:53:10.889Z,19.50
2018-09-26T11:55:39.359Z,19.70
2018-09-26T11:58:07.927Z,19.70
2018-09-26T12:00:36.427Z,19.60
2018-09-26T12:03:04.913Z,19.50
2018-09-26T12:05:33.409Z,19.50
2018-09-26T12:08:01.867Z,19.40
2018-09-26T12:10:30.371Z,19.30
2018-09-26T12:12:58.821Z,19.40
2018-09-26T12:15:27.575Z,19.50
2018-09-26T12:17:56.120Z,19.60
2018-09-26T12:20:24.571Z,19.40
2018-09-26T12:22:53.102Z,19.30
2018-09-26T12:25:21.798Z,19.50
2018-09-26T12:27:50.227Z,19.70
2018-09-26T12:30:18.749Z,19.70
2018-09-26T12:32:47.218Z,19.80
2018-09-26T12:35:15.759Z,19.90
2018-09-26T12:37:44.221Z,20.10
2018-09-26T12:40:12.859Z,20.30
2018-09-26T12:42:41.421Z,20.50
2018-09-26T12:45:09.911Z,20.40
2018-09-26T12:47:38.438Z,20.40
2018-09-26T12:50:07.270Z,20.60
2018-09-26T12:52:35.895Z,20.60
2018-09-26T12:55:04.519Z,20.70
2018-09-26T12:57:33.005Z,20.90
2018-09-26T13:00:01.493Z,20.90
2018-09-26T13:02:30.077Z,20.90
2018-09-26T13:04:58.571Z,21.10
2018-09-26T13:07:27.061Z,21.10
2018-09-26T13:09:55.544Z,21.00
2018-09-26T13:12:24.119Z,21.00
2018-09-26T13:14:52.511Z,21.00
2018-09-26T13:17:21.054Z,21.10
2018-09-26T13:19:49.978Z,21.00
2018-09-26T13:22:18.566Z,21.00
2018-09-26T13:24:46.986Z,21.10
2018-09-26T13:27:15.735Z,21.10
2018-09-26T13:29:44.186Z,21.00
2018-09-26T13:32:12.761Z,21.00
2018-09-26T13:34:41.228Z,21.00
2018-09-26T13:37:10.545Z,20.90
2018-09-26T13:39:39.040Z,20.90
2018-09-26T13:42:08.154Z,21.00
2018-09-26T13:44:36.618Z,21.10
2018-09-26T13:47:05.254Z,21.10
2018-09-26T13:49:33.742Z,21.10
2018-09-26T13:52:02.218Z,21.00
2018-09-26T13:54:31.029Z,21.10
2018-09-26T13:56:59.586Z,21.20
2018-09-26T13:59:28.069Z,21.10
2018-09-26T14:01:56.601Z,21.00
2018-09-26T14:04:25.411Z,20.90
2018-09-26T14:06:54.416Z,21.10
2018-09-26T14:09:22.884Z,21.10
2018-09-26T14:11:51.476Z,21.10
2018-09-26T14:14:20.019Z,21.00
2018-09-26T14:16:48.423Z,21.10
2018-09-26T14:19:16.938Z,21.20
2018-09-26T14:21:45.623Z,21.40
2018-09-26T14:24:14.076Z,21.50
2018-09-26T14:26:42.554Z,21.50
2018-09-26T14:29:11.120Z,21.50
2018-09-26T14:31:39.591Z,21.50
2018-09-26T14:34:08.065Z,21.60
2018-09-26T14:36:36.557Z,21.70
2018-09-26T14:39:06.845Z,21.70
2018-09-26T14:41:35.302Z,21.60
2018-09-26T14:44:04.029Z,21.50
2018-09-26T14:46:32.593Z,21.40
2018-09-26T14:49:01.063Z,21.20
2018-09-26T14:51:29.548Z,21.10
2018-09-26T14:53:58.107Z,21.00
2018-09-26T14:56:26.597Z,20.90
2018-09-26T14:58:55.026Z,20.90
2018-09-26T15:01:23.505Z,20.60
2018-09-26T15:03:51.956Z,20.60
2018-09-26T15:06:20.458Z,20.50
2018-09-26T15:08:49.025Z,20.30
2018-09-26T15:11:17.537Z,20.30
2018-09-26T15:13:45.951Z,20.30
2018-09-26T15:16:14.444Z,20.10
2018-09-26T15:18:42.877Z,19.90
2018-09-26T15:21:11.319Z,19.80
2018-09-26T15:23:39.794Z,19.60
2018-09-26T15:26:08.336Z,19.40
2018-09-26T15:28:36.883Z,19.20
2018-09-26T15:31:05.278Z,19.10
2018-09-26T15:33:33.899Z,19.00
2018-09-26T15:36:02.351Z,18.90
2018-09-26T15:38:31.930Z,18.80
2018-09-26T15:41:00.426Z,18.70
2018-09-26T15:43:28.998Z,18.60
2018-09-26T15:45:58.134Z,18.50
2018-09-26T15:48:26.667Z,18.40
2018-09-26T15:50:55.716Z,18.30
2018-09-26T15:53:24.193Z,18.20
2018-09-26T15:55:52.860Z,18.20
2018-09-26T15:58:21.497Z,18.10
2018-09-26T16:00:51.319Z,18.00
2018-09-26T16:03:19.893Z,18.00
2018-09-26T16:05:48.394Z,18.00
2018-09-26T16:08:16.917Z,18.00
2018-09-26T16:10:45.403Z,17.90
2018-09-26T16:13:13.961Z,17.80
2018-09-26T16:15:42.468Z,17.70
2018-09-26T16:18:10.933Z,17.70
2018-09-26T16:20:40.019Z,17.60
2018-09-26T16:23:08.636Z,17.50
2018-09-26T16:25:37.303Z,17.40
2018-09-26T16:28:05.653Z,17.30
2018-09-26T16:30:34.119Z,17.30
2018-09-26T16:33:02.576Z,17.20
2018-09-26T16:35:31.087Z,17.20
2018-09-26T16:37:59.664Z,17.10
2018-09-26T16:40:28.173Z,17.00
2018-09-26T16:42:56.700Z,16.90
2018-09-26T16:45:25.700Z,16.80
2018-09-26T16:47:54.224Z,16.70
2018-09-26T16:50:22.786Z,16.70
2018-09-26T16:52:51.263Z,16.60
2018-09-26T16:55:19.745Z,16.50
2018-09-26T16:57:48.237Z,16.40
2018-09-26T17:00:16.713Z,16.40
2018-09-26T17:02:45.216Z,16.30
2018-09-26T17:05:14.414Z,16.20
2018-09-26T17:07:42.853Z,16.20
2018-09-26T17:10:11.399Z,16.10
2018-09-26T17:12:40.065Z,16.00
2018-09-26T17:15:08.589Z,15.90
2018-09-26T17:17:37.046Z,15.80
2018-09-26T17:20:05.658Z,15.60
2018-09-26T17:22:34.151Z,15.50
2018-09-26T17:25:02.750Z,15.30
2018-09-26T17:27:31.457Z,15.20
2018-09-26T17:30:00.063Z,15.10
2018-09-26T17:32:28.586Z,15.10
2018-09-26T17:34:57.167Z,15.00
2018-09-26T17:37:25.760Z,14.90
2018-09-26T17:39:54.285Z,14.70
2018-09-26T17:42:23.052Z,14.60
2018-09-26T17:44:51.757Z,14.60
2018-09-26T17:47:20.364Z,14.50
2018-09-26T17:49:49.001Z,14.40
2018-09-26T17:52:17.576Z,14.30
2018-09-26T17:54:46.481Z,14.30
2018-09-26T17:57:14.934Z,14.30
2018-09-26T17:59:43.837Z,14.20
2018-09-26T18:02:12.379Z,14.10
2018-09-26T18:04:40.921Z,14.00
2018-09-26T18:07:09.511Z,14.00
2018-09-26T18:09:38.147Z,13.90
2018-09-26T18:12:06.942Z,13.80
2018-09-26T18:14:35.628Z,13.70
2018-09-26T18:17:04.527Z,13.60
2018-09-26T18:19:33.150Z,13.60
2018-09-26T18:22:01.693Z,13.50
2018-09-26T18:24:30.262Z,13.50
2018-09-26T18:26:59.403Z,13.50
2018-09-26T18:29:27.943Z,13.40
2018-09-26T18:31:56.441Z,13.40
2018-09-26T18:34:24.949Z,13.40
2018-09-26T18:36:54.382Z,13.40
2018-09-26T18:39:22.924Z,13.30
2018-09-26T18:41:51.539Z,13.30
2018-09-26T18:44:20.205Z,13.30
2018-09-26T18:46:48.809Z,13.20
2018-09-26T18:49:17.374Z,13.10
2018-09-26T18:51:46.224Z,13.00
2018-09-26T18:54:14.772Z,13.00
2018-09-26T18:56:43.428Z,13.00
2018-09-26T18:59:12.536Z,12.90
2018-09-26T19:01:41.383Z,12.90
2018-09-26T19:04:10.169Z,12.90
2018-09-26T19:06:38.804Z,12.90
2018-09-26T19:09:09.849Z,12.90
2018-09-26T19:11:39.289Z,12.90
2018-09-26T19:14:08.180Z,12.90
2018-09-26T19:16:37.719Z,12.80
2018-09-26T19:19:07.006Z,12.80
2018-09-26T19:21:35.961Z,12.70
2018-09-26T19:24:04.913Z,12.70
2018-09-26T19:26:34.760Z,12.60
2018-09-26T19:29:04.902Z,12.60
2018-09-26T19:31:33.726Z,12.50
2018-09-26T19:34:02.390Z,12.50
2018-09-26T19:36:30.979Z,12.50
2018-09-26T19:38:59.841Z,12.40
2018-09-26T19:41:28.454Z,12.40
2018-09-26T19:43:56.984Z,12.40
2018-09-26T19:46:25.541Z,12.40
2018-09-26T19:48:54.062Z,12.40
2018-09-26T19:51:23.000Z,12.40
2018-09-26T19:53:51.504Z,12.30
2018-09-26T19:56:20.177Z,12.20
2018-09-26T19:58:48.581Z,12.10
2018-09-26T20:01:17.371Z,12.10
2018-09-26T20:03:45.960Z,12.10
2018-09-26T20:06:14.428Z,12.10
2018-09-26T20:08:43.022Z,12.00
2018-09-26T20:11:11.527Z,12.00
2018-09-26T20:13:40.425Z,12.10
2018-09-26T20:16:09.028Z,12.00
2018-09-26T20:18:37.553Z,12.00
2018-09-26T20:21:06.096Z,12.00
2018-09-26T20:23:35.608Z,11.90
2018-09-26T20:26:04.360Z,11.90
2018-09-26T20:28:33.075Z,11.90
2018-09-26T20:31:01.876Z,11.90
2018-09-26T20:33:32.187Z,11.70
2018-09-26T20:36:01.705Z,11.70
2018-09-26T20:38:30.472Z,11.60
2018-09-26T20:41:00.004Z,11.50
2018-09-26T20:43:28.504Z,11.50
2018-09-26T20:45:57.064Z,11.40
2018-09-26T20:48:25.569Z,11.30
2018-09-26T20:50:54.306Z,11.30
2018-09-26T20:53:22.762Z,11.20
2018-09-26T20:55:51.866Z,11.10
2018-09-26T20:58:20.389Z,11.10
2018-09-26T21:00:48.832Z,11.10
2018-09-26T21:03:17.355Z,11.00
2018-09-26T21:05:45.912Z,10.90
2018-09-26T21:08:14.404Z,10.80
2018-09-26T21:10:42.944Z,10.80
2018-09-26T21:13:11.452Z,10.80
2018-09-26T21:15:40.022Z,10.80
2018-09-26T21:18:08.666Z,10.80
2018-09-26T21:20:37.130Z,10.80
2018-09-26T21:23:05.705Z,10.70
2018-09-26T21:25:34.143Z,10.70
2018-09-26T21:28:02.630Z,10.60
2018-09-26T21:30:31.374Z,10.60
2018-09-26T21:32:59.933Z,10.60
2018-09-26T21:35:28.391Z,10.60
2018-09-26T21:37:57.898Z,10.60
2018-09-26T21:40:26.402Z,10.60
2018-09-26T21:42:54.859Z,10.50
2018-09-26T21:45:23.355Z,10.40
2018-09-26T21:47:51.953Z,10.40
2018-09-26T21:50:20.469Z,10.40
2018-09-26T21:52:49.275Z,10.30
2018-09-26T21:55:17.758Z,10.20
2018-09-26T21:57:46.302Z,10.20
2018-09-26T22:00:14.875Z,10.20
2018-09-26T22:02:43.387Z,10.20
2018-09-26T22:05:11.859Z,10.10
2018-09-26T22:07:40.444Z,10.10
2018-09-26T22:10:08.992Z,10.10
2018-09-26T22:12:37.492Z,10.10
2018-09-26T22:15:10.330Z,10.10
2018-09-26T22:17:38.908Z,10.10
2018-09-26T22:20:07.791Z,10.10
2018-09-26T22:22:36.414Z,10.10
2018-09-26T22:25:04.924Z,10.10
2018-09-26T22:27:33.401Z,10.10
2018-09-26T22:30:01.889Z,10.10
2018-09-26T22:32:30.393Z,10.00
2018-09-26T22:34:58.845Z,10.00
2018-09-26T22:37:27.407Z,10.00
2018-09-26T22:39:55.976Z,10.00
2018-09-26T22:42:24.508Z,9.90
2018-09-26T22:44:52.948Z,9.90
2018-09-26T22:47:21.693Z,9.90
2018-09-26T22:49:50.144Z,9.90
2018-09-26T22:52:18.581Z,9.90
2018-09-26T22:54:47.065Z,9.90
2018-09-26T22:57:15.794Z,10.00
2018-09-26T22:59:44.246Z,10.00
2018-09-26T23:02:12.740Z,10.00
2018-09-26T23:04:41.586Z,9.90
2018-09-26T23:07:10.299Z,10.00
2018-09-26T23:09:38.989Z,10.00
2018-09-26T23:12:07.649Z,10.00
2018-09-26T23:17:03.273Z,10.00
2018-09-26T23:19:31.783Z,10.10
2018-09-26T23:22:01.061Z,10.10
2018-09-26T23:24:30.314Z,10.10
2018-09-26T23:26:58.803Z,10.10
2018-09-26T23:29:27.369Z,10.20
2018-09-26T23:31:55.999Z,10.20
2018-09-26T23:34:25.556Z,10.20
2018-09-26T23:36:54.995Z,10.10
2018-09-26T23:39:23.435Z,10.20
2018-09-26T23:41:51.983Z,10.20
2018-09-26T23:44:20.582Z,10.20
2018-09-26T23:46:49.212Z,10.20
2018-09-26T23:49:17.684Z,10.10
2018-09-26T23:51:46.170Z,10.10
2018-09-26T23:54:15.116Z,10.00
2018-09-26T23:56:43.672Z,10.00
2018-09-26T23:59:12.102Z,10.00
